Terminal Aerodrome Forecast
Issued by NWS Upton, NY

Home | Current Version | Previous Version | Text Only | Print | Product List | Glossary On
Versions: 1 2 3 4 5 6 7 8 9 10 11 12 13 14 15 16 17 18 19 20 21 22 23 24 25 26 27 28 29 30 31 32
593
FTUS41 KOKX 240527
TAFJFK
TAF
KJFK 240527Z 2406/2512 36006KT P6SM SKC
     FM241500 20007KT P6SM SKC
     FM241700 18010KT P6SM FEW050 SCT250
     FM241900 18015KT P6SM FEW050 BKN250
     FM250000 18010KT P6SM SCT050 BKN200
     FM250600 20006KT P6SM SCT150 BKN200=

USA.gov is the U.S. government's official web portal to all federal, state and local government web resources and services.